Time;durP1;ratioP1;P1;durP2;ratioP2;P2;SDS_P1;SDS_P2;PMS_P1;PMS_P2;Temp;Humidity;BMP_temperature;BMP_pressure;BME280_temperature;BME280_humidity;BME280_pressure;Samples;Min_cycle;Max_cycle;Signal;HPM_P1;HPM_P2
2021/08/03 00:00:33;;;;;;;5.22;1.40;;;;;;;13.04;67.46;99901.50;5066248;28;20025;-63
2021/08/03 00:03:01;;;;;;;3.10;1.60;;;;;;;13.08;67.53;99908.31;5066474;28;20017;-62
2021/08/03 00:05:28;;;;;;;2.80;1.40;;;;;;;13.12;67.95;99909.09;5066080;28;20021;-62
2021/08/03 00:08:00;;;;;;;2.45;1.55;;;;;;;13.10;67.86;99905.72;5065969;28;20029;-63
2021/08/03 00:10:27;;;;;;;3.85;1.52;;;;;;;13.04;67.94;99909.31;5066401;28;20051;-64
2021/08/03 00:12:53;;;;;;;3.05;1.55;;;;;;;13.07;68.44;99905.75;5066261;28;20057;-64
2021/08/03 00:15:22;;;;;;;3.05;1.30;;;;;;;13.04;68.51;99904.09;5066260;28;20036;-63
2021/08/03 00:17:51;;;;;;;2.85;1.40;;;;;;;13.03;68.67;99905.00;5066154;28;20032;-63
2021/08/03 00:20:18;;;;;;;3.03;1.40;;;;;;;13.12;68.31;99903.88;5065802;28;20031;-63
2021/08/03 00:22:43;;;;;;;2.25;1.40;;;;;;;13.24;68.26;99910.53;5066161;28;20021;-63
2021/08/03 00:25:11;;;;;;;2.22;1.10;;;;;;;13.25;67.99;99909.63;5064674;28;20058;-64
2021/08/03 00:27:36;;;;;;;3.97;1.30;;;;;;;13.23;68.07;99911.41;5066003;28;20028;-64
2021/08/03 00:30:02;;;;;;;1.73;1.20;;;;;;;13.14;68.40;99908.19;5066104;28;20432;-63
2021/08/03 00:32:28;;;;;;;2.45;1.15;;;;;;;13.14;68.30;99908.19;5064461;28;20036;-62
2021/08/03 00:34:53;;;;;;;1.55;1.20;;;;;;;13.19;67.99;99907.19;5065747;28;20021;-62
2021/08/03 00:37:19;;;;;;;4.03;1.10;;;;;;;13.27;67.87;99907.84;5065337;28;20045;-63
2021/08/03 00:39:44;;;;;;;2.70;1.27;;;;;;;13.41;67.47;99906.59;5064549;28;20041;-62
2021/08/03 00:42:09;;;;;;;1.48;1.00;;;;;;;13.55;66.85;99901.88;5065570;28;20126;-63
2021/08/03 00:44:45;;;;;;;2.35;1.13;;;;;;;13.65;66.29;99901.59;5065855;28;20080;-64
2021/08/03 00:47:12;;;;;;;3.20;1.23;;;;;;;13.61;66.10;99886.03;5065624;28;20461;-64
2021/08/03 00:49:39;;;;;;;3.85;1.10;;;;;;;13.61;66.06;99899.06;5065496;28;20102;-64
2021/08/03 00:52:07;;;;;;;1.77;1.13;;;;;;;13.58;66.37;99898.31;5065418;28;20017;-62
2021/08/03 00:54:33;;;;;;;6.65;1.23;;;;;;;13.51;66.54;99902.88;5065429;28;20024;-62
2021/08/03 00:56:58;;;;;;;2.35;1.38;;;;;;;13.43;66.84;99897.84;5065491;28;20043;-62
2021/08/03 00:59:24;;;;;;;2.65;1.17;;;;;;;13.33;67.09;99899.84;5065173;28;20063;-64
2021/08/03 01:01:49;;;;;;;3.00;1.10;;;;;;;13.24;67.54;99902.72;5065231;28;20496;-66
2021/08/03 01:04:17;;;;;;;2.83;1.40;;;;;;;13.13;68.56;99903.84;5065068;28;20029;-64
2021/08/03 01:07:24;;;;;;;2.30;1.60;;;;;;;13.05;68.72;99890.16;5065236;28;20037;-65
2021/08/03 01:10:01;;;;;;;1.70;1.30;;;;;;;12.97;69.22;99890.38;5054059;28;20036;-64
2021/08/03 01:12:48;;;;;;;1.90;1.02;;;;;;;13.00;68.95;99898.09;5065105;28;20017;-65
2021/08/03 01:15:20;;;;;;;1.73;1.10;;;;;;;13.02;68.67;99896.31;5064999;28;20025;-65
2021/08/03 01:17:59;;;;;;;3.88;1.20;;;;;;;13.08;68.29;99892.69;5063677;28;20035;-64
2021/08/03 01:20:32;;;;;;;1.98;1.13;;;;;;;13.06;68.05;99891.03;5064930;28;20028;-64
2021/08/03 01:23:37;;;;;;;2.17;1.05;;;;;;;12.99;68.15;99891.19;5064966;28;20024;-65
2021/08/03 01:26:05;;;;;;;2.33;1.27;;;;;;;13.00;68.01;99892.06;5064710;28;20017;-65
2021/08/03 01:28:33;;;;;;;2.05;1.27;;;;;;;13.01;67.73;99896.38;5064590;28;20449;-65
2021/08/03 01:31:07;;;;;;;2.70;1.10;;;;;;;13.04;67.15;99898.88;5064737;28;20393;-65
2021/08/03 01:33:36;;;;;;;1.48;1.15;;;;;;;13.09;66.65;99898.75;5064584;28;20020;-65
2021/08/03 01:36:03;;;;;;;2.00;1.00;;;;;;;13.12;66.62;99904.75;5063713;28;20025;-65
2021/08/03 01:38:32;;;;;;;1.40;1.10;;;;;;;13.16;66.53;99900.31;5064318;28;20037;-66
2021/08/03 01:41:07;;;;;;;1.90;1.20;;;;;;;13.12;66.64;99896.94;5064332;28;20024;-66
2021/08/03 01:43:34;;;;;;;1.70;1.02;;;;;;;13.12;66.71;99906.50;5064587;28;20021;-66
2021/08/03 01:46:01;;;;;;;1.85;1.20;;;;;;;13.07;67.01;99906.63;5064303;28;20025;-65
2021/08/03 01:48:27;;;;;;;2.03;1.10;;;;;;;12.94;67.15;99892.22;5064272;28;20013;-65
2021/08/03 01:50:55;;;;;;;1.70;1.10;;;;;;;12.94;66.91;99900.03;5064071;28;20020;-65
2021/08/03 01:53:23;;;;;;;1.98;1.00;;;;;;;13.02;66.51;99909.34;5064368;28;20025;-65
2021/08/03 01:55:50;;;;;;;1.52;0.80;;;;;;;13.04;66.27;99917.13;5063929;28;20088;-64
2021/08/03 01:58:17;;;;;;;1.98;1.10;;;;;;;13.08;65.96;99910.94;5063948;28;20025;-65
2021/08/03 02:00:43;;;;;;;2.92;1.20;;;;;;;13.01;66.07;99907.66;5064053;28;20020;-65
2021/08/03 02:03:10;;;;;;;1.73;1.00;;;;;;;12.98;66.24;99907.75;5064026;28;20021;-65
2021/08/03 02:05:38;;;;;;;1.90;1.33;;;;;;;12.96;66.70;99909.53;5063938;28;20048;-65
2021/08/03 02:08:06;;;;;;;1.70;1.20;;;;;;;12.89;67.33;99918.41;5063982;28;20048;-65
2021/08/03 02:10:31;;;;;;;2.40;1.27;;;;;;;12.82;67.46;99911.63;5063953;28;20029;-65
2021/08/03 02:12:58;;;;;;;3.70;1.30;;;;;;;12.72;67.85;99913.59;5063226;28;20036;-64
2021/08/03 02:15:23;;;;;;;2.15;1.02;;;;;;;12.71;67.96;99919.72;5062883;28;20021;-65
2021/08/03 02:17:48;;;;;;;5.35;1.20;;;;;;;12.64;67.84;99912.06;5063053;28;20074;-65
2021/08/03 02:20:14;;;;;;;1.83;1.23;;;;;;;12.65;68.05;99912.94;5063419;28;20127;-65
2021/08/03 02:22:39;;;;;;;1.60;1.10;;;;;;;12.65;68.28;99915.53;5063782;28;20220;-65
2021/08/03 02:25:09;;;;;;;1.73;1.30;;;;;;;12.65;68.29;99918.13;5063522;28;20060;-65
2021/08/03 02:27:35;;;;;;;3.13;1.48;;;;;;;12.61;68.55;99919.94;5063763;28;20154;-65
2021/08/03 02:30:01;;;;;;;4.40;1.48;;;;;;;12.61;68.47;99919.94;5063588;28;20029;-65
2021/08/03 02:32:32;;;;;;;1.60;1.20;;;;;;;12.59;68.63;99921.72;5063285;28;20033;-65
2021/08/03 02:35:09;;;;;;;1.85;1.25;;;;;;;12.59;68.64;99924.34;5063289;28;20024;-65
2021/08/03 02:37:38;;;;;;;2.92;1.40;;;;;;;12.62;68.88;99926.03;5063481;28;20047;-65
2021/08/03 02:40:07;;;;;;;2.28;1.15;;;;;;;12.63;68.88;99925.13;5063393;28;20032;-65
2021/08/03 02:42:36;;;;;;;2.00;1.20;;;;;;;12.63;69.00;99919.91;5063218;28;20028;-66
2021/08/03 02:45:03;;;;;;;2.22;1.17;;;;;;;12.62;69.03;99926.84;5063271;28;20031;-66
2021/08/03 02:47:36;;;;;;;2.58;1.33;;;;;;;12.55;69.65;99920.09;5061382;28;20513;-65
2021/08/03 02:50:06;;;;;;;2.92;1.33;;;;;;;12.49;70.06;99928.91;5063162;28;20099;-65
2021/08/03 02:52:36;;;;;;;1.85;1.20;;;;;;;12.45;70.27;99929.00;5063085;28;20025;-65
2021/08/03 02:55:07;;;;;;;3.42;1.40;;;;;;;12.42;70.47;99923.88;5063228;28;20226;-65
2021/08/03 02:57:36;;;;;;;2.63;1.63;;;;;;;12.36;70.70;99923.13;5063290;28;20060;-65
2021/08/03 03:00:02;;;;;;;4.40;1.42;;;;;;;12.35;70.93;99933.56;5063120;28;20085;-65
2021/08/03 03:02:33;;;;;;;2.40;1.38;;;;;;;12.37;71.01;99931.81;5063091;28;20017;-66
2021/08/03 03:05:01;;;;;;;3.08;1.40;;;;;;;12.36;71.16;99941.34;5062992;28;20052;-65
2021/08/03 03:07:35;;;;;;;1.98;1.40;;;;;;;12.37;71.31;99922.25;5063164;28;20027;-65
2021/08/03 03:10:04;;;;;;;2.90;1.40;;;;;;;12.39;71.53;99925.69;5062918;28;20036;-65
2021/08/03 03:12:33;;;;;;;5.32;1.38;;;;;;;12.37;71.62;99932.66;5062806;28;20025;-66
2021/08/03 03:15:01;;;;;;;2.63;1.30;;;;;;;12.33;71.65;99931.00;5063051;28;20048;-65
2021/08/03 03:17:31;;;;;;;3.05;1.40;;;;;;;12.35;71.99;99934.44;5062898;28;20044;-65
2021/08/03 03:19:58;;;;;;;3.33;1.63;;;;;;;12.39;72.03;99938.69;5062978;28;20021;-65
2021/08/03 03:22:26;;;;;;;2.72;1.40;;;;;;;12.42;72.16;99929.97;5061535;28;20021;-64
2021/08/03 03:24:52;;;;;;;2.30;1.52;;;;;;;12.51;71.99;99931.47;5062791;28;20492;-65
2021/08/03 03:27:19;;;;;;;2.53;1.50;;;;;;;12.59;71.86;99929.53;5062055;28;20082;-65
2021/08/03 03:29:45;;;;;;;2.83;1.40;;;;;;;12.64;71.67;99938.09;5062038;28;20051;-65
2021/08/03 03:32:11;;;;;;;2.13;1.48;;;;;;;12.61;71.70;99935.56;5062968;28;20075;-66
2021/08/03 03:34:39;;;;;;;1.95;1.23;;;;;;;12.55;71.71;99927.91;5062752;28;20103;-65
2021/08/03 03:37:05;;;;;;;2.00;1.48;;;;;;;12.48;71.97;99932.41;5062664;28;20045;-65
2021/08/03 03:39:34;;;;;;;1.67;1.13;;;;;;;12.48;72.04;99941.97;5061498;28;20090;-66
2021/08/03 03:42:04;;;;;;;2.50;1.42;;;;;;;12.50;72.30;99937.56;5062780;28;20025;-66
2021/08/03 03:44:31;;;;;;;2.38;1.30;;;;;;;12.66;72.44;99939.81;5062956;28;20186;-65
2021/08/03 03:46:59;;;;;;;2.28;1.00;;;;;;;12.86;72.36;99940.16;5062652;28;20048;-65
2021/08/03 03:49:30;;;;;;;1.83;1.08;;;;;;;13.11;71.66;99942.16;5062611;28;20289;-65
2021/08/03 03:52:00;;;;;;;3.28;1.60;;;;;;;13.26;71.36;99942.59;5062872;28;20100;-65
2021/08/03 03:54:33;;;;;;;2.03;1.35;;;;;;;13.42;70.88;99945.66;5062794;28;20041;-65
2021/08/03 03:57:04;;;;;;;2.75;1.27;;;;;;;13.62;70.48;99949.50;5062719;28;20021;-64
2021/08/03 03:59:30;;;;;;;1.73;1.10;;;;;;;13.83;69.95;99941.94;5065321;28;20032;-65
2021/08/03 04:01:58;;;;;;;1.73;1.27;;;;;;;14.05;68.96;99941.28;5066389;28;20021;-65
2021/08/03 04:04:25;;;;;;;2.17;1.33;;;;;;;14.22;68.28;99944.25;5066290;28;20016;-66
2021/08/03 04:06:51;;;;;;;2.28;1.50;;;;;;;14.30;67.52;99945.75;5066317;28;20021;-66
2021/08/03 04:09:23;;;;;;;2.83;1.25;;;;;;;14.21;67.22;99945.16;5064919;28;20379;-66
2021/08/03 04:11:49;;;;;;;;;;;;;;;14.06;66.91;99943.84;5066593;28;20056;-66
2021/08/03 04:14:19;;;;;;;2.90;1.20;;;;;;;13.77;67.68;99949.97;5066112;28;19908;-66
2021/08/03 04:16:44;;;;;;;2.58;1.40;;;;;;;13.58;67.99;99953.06;5066152;28;20055;-66
2021/08/03 04:19:10;;;;;;;4.63;1.83;;;;;;;13.40;68.23;99952.69;5065961;28;20033;-66
2021/08/03 04:21:35;;;;;;;4.40;1.30;;;;;;;13.26;68.96;99959.13;5065874;28;20055;-65
2021/08/03 04:24:00;;;;;;;3.10;2.20;;;;;;;13.23;69.18;99953.13;5065906;28;20029;-65
2021/08/03 04:26:26;;;;;;;1.83;1.20;;;;;;;13.33;69.82;99954.59;5066039;28;20029;-65
2021/08/03 04:28:51;;;;;;;2.13;1.40;;;;;;;13.48;69.35;99952.47;5065697;28;20028;-65
2021/08/03 04:31:16;;;;;;;2.25;1.40;;;;;;;13.54;69.53;99951.47;5065676;28;20381;-65
2021/08/03 04:33:42;;;;;;;2.25;1.63;;;;;;;13.69;69.15;99952.78;5065687;28;20083;-66
2021/08/03 04:36:07;;;;;;;2.22;1.38;;;;;;;13.91;69.62;99955.63;5065501;28;20025;-65
2021/08/03 04:38:33;;;;;;;3.88;1.20;;;;;;;14.26;68.43;99950.22;5065666;28;20418;-65
2021/08/03 04:40:58;;;;;;;1.42;1.10;;;;;;;14.32;67.57;99952.66;5065533;28;20029;-65
2021/08/03 04:43:23;;;;;;;3.03;1.17;;;;;;;14.56;67.76;99949.28;5065691;28;20047;-65
2021/08/03 04:45:48;;;;;;;2.22;1.10;;;;;;;14.98;66.86;99950.56;5065601;28;20086;-65
2021/08/03 04:48:14;;;;;;;2.22;1.20;;;;;;;15.30;65.78;99964.28;5065588;28;20029;-64
2021/08/03 04:50:40;;;;;;;2.08;1.10;;;;;;;15.30;65.01;99963.41;5065187;28;20021;-65
2021/08/03 04:53:05;;;;;;;2.45;1.58;;;;;;;15.06;64.65;99964.22;5063983;28;20028;-66
2021/08/03 04:55:30;;;;;;;2.85;1.42;;;;;;;14.70;65.29;99956.66;5065332;28;20540;-66
2021/08/03 04:57:56;;;;;;;3.33;1.60;;;;;;;14.45;66.05;99965.31;5063868;28;20047;-65
2021/08/03 05:00:21;;;;;;;4.25;1.45;;;;;;;14.12;66.63;99958.50;5063906;28;20037;-65
2021/08/03 05:02:47;;;;;;;3.50;1.35;;;;;;;13.98;67.45;99972.78;5065098;28;20020;-66
2021/08/03 05:05:13;;;;;;;3.30;1.50;;;;;;;13.78;68.01;99972.53;5065207;28;20052;-67
2021/08/03 05:07:38;;;;;;;2.50;1.85;;;;;;;13.63;68.69;99974.66;5065187;28;20149;-66
2021/08/03 05:10:07;;;;;;;2.70;1.40;;;;;;;13.49;69.14;99968.06;5064331;28;20088;-66
2021/08/03 05:12:33;;;;;;;4.50;1.50;;;;;;;13.38;69.74;99968.38;5064899;28;20025;-66
2021/08/03 05:15:01;;;;;;;2.92;1.60;;;;;;;13.32;70.58;99968.50;5064818;28;20071;-66
2021/08/03 05:17:28;;;;;;;2.75;1.63;;;;;;;13.29;70.84;99980.78;5064926;28;20040;-66
2021/08/03 05:19:53;;;;;;;3.53;1.77;;;;;;;13.26;71.20;99985.19;5064846;28;20017;-67
2021/08/03 05:22:19;;;;;;;2.53;1.75;;;;;;;13.28;71.28;99977.31;5064777;28;20500;-66
2021/08/03 05:24:44;;;;;;;2.35;1.60;;;;;;;13.33;71.56;99978.06;5064848;28;20036;-66
2021/08/03 05:27:09;;;;;;;5.95;1.70;;;;;;;13.38;71.57;99983.16;5064787;28;20094;-67
2021/08/03 05:29:35;;;;;;;3.47;1.60;;;;;;;13.42;71.70;99973.50;5064443;28;20104;-66
2021/08/03 05:32:00;;;;;;;3.80;1.50;;;;;;;13.49;71.50;99975.03;5064355;28;20025;-66
2021/08/03 05:34:25;;;;;;;3.13;1.50;;;;;;;13.53;71.63;99987.09;5062999;28;20031;-65
2021/08/03 05:36:51;;;;;;;4.72;1.63;;;;;;;13.56;71.77;99973.97;5062867;28;20073;-65
2021/08/03 05:39:16;;;;;;;3.47;1.55;;;;;;;13.61;71.91;99979.09;5064689;28;20448;-65
2021/08/03 05:41:42;;;;;;;3.97;1.70;;;;;;;13.68;71.75;99984.97;5064575;28;20035;-66
2021/08/03 05:44:07;;;;;;;2.35;1.55;;;;;;;13.65;71.65;99977.22;5064530;28;20076;-66
2021/08/03 05:46:32;;;;;;;3.05;1.65;;;;;;;13.73;71.92;99980.47;5064333;28;20084;-66
2021/08/03 05:48:58;;;;;;;4.45;1.42;;;;;;;13.83;72.31;99979.34;5064087;28;20029;-66
2021/08/03 05:51:23;;;;;;;1.90;1.35;;;;;;;13.95;71.87;99980.72;5064184;28;20025;-65
2021/08/03 05:53:49;;;;;;;3.88;1.60;;;;;;;14.03;71.89;99983.09;5064207;28;20032;-65
2021/08/03 05:56:14;;;;;;;2.75;1.70;;;;;;;14.12;71.73;99987.22;5064170;28;20079;-67
2021/08/03 05:58:39;;;;;;;4.20;1.63;;;;;;;14.23;71.65;99977.25;5064356;28;20025;-66
2021/08/03 06:01:05;;;;;;;2.13;1.38;;;;;;;14.33;71.35;99975.22;5064067;28;20033;-67
2021/08/03 06:03:30;;;;;;;3.05;1.40;;;;;;;14.42;71.28;99976.72;5064265;28;20126;-65
2021/08/03 06:05:55;;;;;;;3.25;1.35;;;;;;;14.57;71.24;99980.59;5063930;28;20029;-65
2021/08/03 06:08:25;;;;;;;3.60;1.63;;;;;;;14.81;70.99;99977.28;5062748;28;20021;-67
2021/08/03 06:10:52;;;;;;;2.33;1.20;;;;;;;15.27;70.73;99974.81;5064123;28;20084;-66
2021/08/03 06:13:21;;;;;;;3.28;1.60;;;;;;;15.74;69.26;99978.41;5062639;28;20021;-66
2021/08/03 06:15:49;;;;;;;4.10;1.23;;;;;;;16.18;67.31;99987.31;5064002;28;20025;-66
2021/08/03 06:18:35;;;;;;;4.55;1.40;;;;;;;16.79;66.03;99970.03;5063741;28;20020;-66
2021/08/03 06:21:01;;;;;;;3.78;1.42;;;;;;;17.28;64.71;99987.25;5063682;28;20025;-66
2021/08/03 06:23:27;;;;;;;8.43;1.48;;;;;;;17.83;62.82;99984.84;5063528;28;20084;-62
2021/08/03 06:25:54;;;;;;;5.70;1.55;;;;;;;18.22;62.16;99985.72;5063361;28;20031;-63
2021/08/03 06:28:23;;;;;;;2.70;1.40;;;;;;;18.85;60.82;99977.50;5063911;28;20054;-63
2021/08/03 06:30:49;;;;;;;8.55;1.58;;;;;;;19.15;57.81;99982.97;5063658;28;20025;-62
2021/08/03 06:33:20;;;;;;;4.32;1.30;;;;;;;19.05;57.04;99979.09;5062429;28;20021;-62
2021/08/03 06:35:49;;;;;;;3.92;1.17;;;;;;;19.11;57.23;99985.84;5063523;28;20025;-61
2021/08/03 06:38:15;;;;;;;4.30;1.30;;;;;;;19.27;56.80;99983.28;5063475;28;20512;-62
2021/08/03 06:40:51;;;;;;;4.30;1.40;;;;;;;19.59;56.73;99987.78;5063726;28;20047;-61
2021/08/03 06:43:20;;;;;;;7.05;1.33;;;;;;;19.83;55.45;99993.53;5063780;28;20013;-62
2021/08/03 06:46:06;;;;;;;5.63;1.52;;;;;;;20.14;54.62;99998.94;5063660;28;20052;-62
2021/08/03 06:48:59;;;;;;;4.25;1.20;;;;;;;20.54;52.98;99990.59;5063469;28;20461;-61
2021/08/03 06:51:30;;;;;;;3.00;1.25;;;;;;;20.68;52.69;99998.56;5063235;28;20393;-62
2021/08/03 06:53:57;;;;;;;5.22;1.50;;;;;;;20.84;52.34;99994.16;5063165;28;20366;-61
2021/08/03 06:56:24;;;;;;;3.20;1.05;;;;;;;21.15;52.35;99990.59;5063191;28;20033;-62
2021/08/03 06:59:06;;;;;;;3.53;1.63;;;;;;;21.76;51.57;99994.00;5063325;28;20474;-61
2021/08/03 07:01:46;;;;;;;5.28;1.45;;;;;;;22.49;50.78;99994.72;5062963;28;20505;-61
2021/08/03 07:04:15;;;;;;;4.18;1.90;;;;;;;23.19;48.84;99997.22;5062186;28;20037;-61
2021/08/03 07:06:46;;;;;;;5.63;1.75;;;;;;;23.48;47.60;99997.03;5062670;28;20040;-61
2021/08/03 07:09:13;;;;;;;13.88;1.80;;;;;;;23.52;46.95;99995.03;5063447;28;20024;-61
2021/08/03 07:11:39;;;;;;;9.40;1.52;;;;;;;23.34;46.79;100007.72;5063201;28;20100;-61
2021/08/03 07:14:05;;;;;;;7.15;1.40;;;;;;;23.03;46.53;100011.50;5063606;28;20044;-62
2021/08/03 07:16:31;;;;;;;6.40;1.20;;;;;;;22.52;46.82;100017.50;5063203;28;20033;-61
2021/08/03 07:18:58;;;;;;;6.32;1.25;;;;;;;21.89;47.22;100020.53;5063299;28;20680;-62
2021/08/03 07:21:27;;;;;;;7.65;2.08;;;;;;;21.22;49.19;100017.47;5063090;28;20025;-62
2021/08/03 07:23:57;;;;;;;5.30;1.33;;;;;;;20.79;49.56;100021.66;5063160;28;20084;-63
2021/08/03 07:26:24;;;;;;;5.45;1.85;;;;;;;20.27;50.87;100031.56;5062673;28;20017;-68
2021/08/03 07:28:49;;;;;;;7.10;1.50;;;;;;;20.16;51.55;100020.81;5062228;28;20055;-69
2021/08/03 07:31:15;;;;;;;5.35;1.20;;;;;;;20.25;51.46;100022.94;5061015;28;20438;-70
2021/08/03 07:33:40;;;;;;;3.58;1.35;;;;;;;20.54;51.48;100030.13;5064641;28;20548;-69
2021/08/03 07:36:06;;;;;;;6.13;1.73;;;;;;;20.74;49.02;100025.50;5066748;28;20370;-69
2021/08/03 07:38:31;;;;;;;4.43;1.75;;;;;;;20.85;49.76;100019.59;5067046;28;20024;-69
2021/08/03 07:40:57;;;;;;;11.15;1.75;;;;;;;21.18;49.79;100021.25;5067021;28;20029;-68
2021/08/03 07:43:22;;;;;;;7.20;1.45;;;;;;;21.53;49.38;100028.81;5066985;28;20352;-69
2021/08/03 07:45:48;;;;;;;5.85;1.52;;;;;;;22.21;48.31;100033.53;5066803;28;20051;-68
2021/08/03 07:48:14;;;;;;;8.70;1.95;;;;;;;22.56;46.70;100036.66;5066800;28;20466;-69
2021/08/03 07:50:39;;;;;;;7.22;1.67;;;;;;;22.47;45.22;100035.44;5066574;28;20036;-69
2021/08/03 07:53:05;;;;;;;10.00;2.40;;;;;;;22.32;45.43;100032.84;5066554;28;20047;-69
2021/08/03 07:55:30;;;;;;;10.85;1.95;;;;;;;21.96;45.79;100032.44;5066637;28;20021;-69
2021/08/03 07:57:55;;;;;;;8.77;1.73;;;;;;;21.48;46.76;100027.41;5066616;28;20029;-69
2021/08/03 08:00:21;;;;;;;7.53;2.17;;;;;;;21.52;47.47;100032.41;5066476;28;20024;-69
2021/08/03 08:02:46;;;;;;;5.20;1.63;;;;;;;21.63;46.21;100025.63;5066419;28;20029;-69
2021/08/03 08:05:11;;;;;;;9.70;1.75;;;;;;;21.56;46.88;100027.78;5066049;28;20024;-67
2021/08/03 08:07:37;;;;;;;11.48;2.22;;;;;;;21.75;47.44;100035.44;5066633;28;20028;-67
2021/08/03 08:10:03;;;;;;;7.55;2.22;;;;;;;21.87;46.66;100028.56;5066565;28;20084;-67
2021/08/03 08:12:28;;;;;;;9.25;2.20;;;;;;;21.71;46.97;100027.81;5066402;28;20033;-67
2021/08/03 08:14:54;;;;;;;11.38;1.73;;;;;;;21.49;47.20;100034.38;5066215;28;20032;-67
2021/08/03 08:17:19;;;;;;;6.35;1.50;;;;;;;21.54;48.04;100030.53;5066229;28;20032;-67
2021/08/03 08:19:44;;;;;;;9.77;1.52;;;;;;;22.09;47.24;100026.38;5065773;28;20089;-66
2021/08/03 08:22:11;;;;;;;8.70;1.70;;;;;;;22.40;46.21;100034.97;5066132;28;20017;-66
2021/08/03 08:24:37;;;;;;;6.70;1.98;;;;;;;22.21;45.84;100033.53;5065987;28;20021;-66
2021/08/03 08:27:02;;;;;;;9.65;2.20;;;;;;;21.86;46.51;100037.44;5066327;28;20029;-67
2021/08/03 08:29:27;;;;;;;8.50;2.25;;;;;;;21.52;47.26;100029.75;5066173;28;20052;-67
2021/08/03 08:31:53;;;;;;;10.02;1.95;;;;;;;21.17;47.90;100030.09;5065632;28;20112;-66
2021/08/03 08:34:19;;;;;;;7.38;2.28;;;;;;;20.85;48.56;100035.41;5065886;28;20529;-67
2021/08/03 08:36:44;;;;;;;11.68;2.38;;;;;;;20.65;49.21;100037.44;5065593;28;20087;-66
2021/08/03 08:39:10;;;;;;;9.20;2.05;;;;;;;20.71;49.71;100038.84;5065796;28;20047;-65
2021/08/03 08:41:37;;;;;;;11.70;2.05;;;;;;;20.97;49.45;100029.50;5065734;28;20032;-67
2021/08/03 08:44:03;;;;;;;8.32;2.10;;;;;;;21.85;47.46;100034.91;5065484;28;20021;-67
2021/08/03 08:46:33;;;;;;;8.85;2.00;;;;;;;21.88;46.83;100043.50;5063246;28;20025;-67
2021/08/03 08:49:00;;;;;;;11.00;2.17;;;;;;;21.64;46.73;100037.88;5065607;28;20028;-66
2021/08/03 08:51:26;;;;;;;6.47;2.22;;;;;;;21.29;47.62;100044.38;5065376;28;20028;-66
2021/08/03 08:53:52;;;;;;;13.15;2.92;;;;;;;21.23;48.27;100050.00;5064817;28;20079;-67
2021/08/03 08:56:17;;;;;;;7.45;1.95;;;;;;;21.63;48.14;100041.47;5064323;28;20099;-67
2021/08/03 08:58:43;;;;;;;4.97;1.73;;;;;;;22.09;46.77;100039.59;5065310;28;20313;-67
2021/08/03 09:01:09;;;;;;;10.27;1.65;;;;;;;22.09;45.89;100047.53;5065569;28;20107;-66
2021/08/03 09:03:35;;;;;;;7.05;1.77;;;;;;;21.96;46.07;100040.38;5064087;28;20044;-67
2021/08/03 09:06:02;;;;;;;7.72;1.73;;;;;;;21.97;46.55;100034.13;5063700;28;20374;-67
2021/08/03 09:08:38;;;;;;;8.48;1.83;;;;;;;22.10;46.15;100043.94;5065540;28;20031;-67
2021/08/03 09:11:15;;;;;;;8.57;2.15;;;;;;;21.95;46.31;100030.72;5065603;28;20024;-68
2021/08/03 09:14:00;;;;;;;8.90;1.50;;;;;;;21.97;46.59;100050.00;5065138;28;20037;-70
2021/08/03 09:16:59;;;;;;;7.28;2.13;;;;;;;21.82;45.90;100046.50;5065101;28;20025;-65
2021/08/03 09:19:28;;;;;;;9.77;1.73;;;;;;;21.52;46.04;100044.75;5052463;28;20059;-66
2021/08/03 09:22:20;;;;;;;10.02;1.77;;;;;;;21.39;47.04;100048.13;5063654;28;20056;-65
2021/08/03 09:24:48;;;;;;;6.45;1.52;;;;;;;21.41;47.19;100043.63;5065002;28;20048;-65
2021/08/03 09:27:32;;;;;;;14.93;3.30;;;;;;;21.69;47.28;100045.53;5064812;28;20056;-68
2021/08/03 09:29:57;;;;;;;7.38;1.60;;;;;;;22.93;45.48;100049.28;5065070;28;20332;-68
2021/08/03 09:32:34;;;;;;;7.10;1.83;;;;;;;24.25;42.28;100047.38;5064874;28;20029;-66
2021/08/03 09:35:17;;;;;;;9.18;1.63;;;;;;;24.24;41.43;100051.00;5064703;28;20065;-68
2021/08/03 09:37:43;;;;;;;7.30;1.90;;;;;;;23.99;40.98;100050.09;5064766;28;20047;-69
2021/08/03 09:40:25;;;;;;;8.23;1.63;;;;;;;23.84;41.89;100052.00;5064945;28;20025;-69
2021/08/03 09:42:58;;;;;;;;;;;;;;;24.24;41.01;100049.22;5065046;28;20017;-67
2021/08/03 09:45:24;;;;;;;4.60;1.63;;;;;;;24.37;40.23;100043.00;5064529;28;19955;-70
2021/08/03 09:47:50;;;;;;;5.55;1.45;;;;;;;24.67;39.67;100047.03;5064401;28;20029;-68
2021/08/03 09:50:18;;;;;;;7.38;1.38;;;;;;;25.59;38.25;100042.81;5064459;28;20071;-66
2021/08/03 09:52:45;;;;;;;5.40;1.10;;;;;;;26.43;36.19;100046.06;5064444;28;20059;-68
2021/08/03 09:55:15;;;;;;;7.13;1.48;;;;;;;25.95;36.17;100045.38;5064429;28;20108;-69
2021/08/03 09:57:43;;;;;;;5.25;1.65;;;;;;;25.13;36.85;100052.50;5064217;28;20025;-66
2021/08/03 10:00:26;;;;;;;6.80;1.25;;;;;;;24.05;38.37;100040.84;5063133;28;20025;-66
2021/08/03 10:02:55;;;;;;;8.80;1.85;;;;;;;23.30;40.09;100060.03;5064267;28;20025;-66
2021/08/03 10:05:22;;;;;;;7.95;1.77;;;;;;;23.02;41.33;100052.16;5062772;28;20036;-66
2021/08/03 10:07:47;;;;;;;7.15;1.88;;;;;;;23.38;40.78;100055.13;5064340;28;20029;-70
2021/08/03 10:10:14;;;;;;;4.45;1.30;;;;;;;23.58;39.95;100055.53;5064145;28;20033;-69
2021/08/03 10:12:39;;;;;;;8.43;1.83;;;;;;;23.91;39.95;100057.72;5064049;28;20032;-66
2021/08/03 10:15:08;;;;;;;7.53;1.67;;;;;;;24.02;39.54;100060.47;5064123;28;20114;-69
2021/08/03 10:17:34;;;;;;;7.35;1.95;;;;;;;23.93;39.55;100055.81;5063905;28;20016;-65
2021/08/03 10:20:00;;;;;;;7.70;2.00;;;;;;;24.53;38.81;100052.50;5062330;28;20033;-67
2021/08/03 10:22:31;;;;;;;11.63;2.03;;;;;;;24.57;38.54;100057.47;5062566;28;20052;-67
2021/08/03 10:25:14;;;;;;;7.85;1.65;;;;;;;24.63;38.22;100048.22;5063831;28;20021;-69
2021/08/03 10:27:40;;;;;;;10.18;1.50;;;;;;;24.44;38.44;100060.16;5063868;28;20106;-67
2021/08/03 10:30:07;;;;;;;7.15;1.50;;;;;;;23.73;39.10;100050.13;5062495;28;20061;-68
2021/08/03 10:32:35;;;;;;;9.38;1.70;;;;;;;23.00;40.14;100054.03;5095964;28;20055;-67
2021/08/03 10:35:01;;;;;;;6.90;1.50;;;;;;;22.48;41.00;100064.44;5063702;28;20068;-73
2021/08/03 10:37:58;;;;;;;10.68;1.45;;;;;;;21.77;42.09;100070.56;5063519;28;20049;-66
2021/08/03 10:41:02;;;;;;;10.35;1.95;;;;;;;21.40;42.97;100057.78;5063528;28;20028;-66
2021/08/03 10:43:33;;;;;;;4.40;1.83;;;;;;;21.05;43.77;100063.34;5040600;28;20072;-66
2021/08/03 10:46:08;;;;;;;11.75;1.85;;;;;;;21.20;44.44;100064.22;5040908;28;20071;-66
2021/08/03 10:48:39;;;;;;;6.43;1.77;;;;;;;21.77;43.15;100061.81;5024340;28;20522;-68
2021/08/03 10:51:16;;;;;;;11.53;2.40;;;;;;;21.51;42.94;100058.91;5040611;28;20519;-67
2021/08/03 10:54:00;;;;;;;6.47;1.75;;;;;;;21.26;43.75;100063.84;5040855;28;20037;-68
2021/08/03 10:56:26;;;;;;;5.05;1.67;;;;;;;20.92;44.09;100055.28;5040867;28;20112;-67
2021/08/03 10:59:30;;;;;;;8.27;1.55;;;;;;;20.65;44.90;100061.16;5024131;28;20029;-67
2021/08/03 11:01:55;;;;;;;9.52;1.73;;;;;;;20.48;45.29;100055.03;5040497;28;20052;-66
2021/08/03 11:04:42;;;;;;;7.13;1.42;;;;;;;20.53;45.79;100057.41;5040537;28;20037;-67
2021/08/03 11:07:26;;;;;;;8.43;1.73;;;;;;;21.39;44.04;100055.22;5040693;28;20137;-67
2021/08/03 11:09:52;;;;;;;5.47;1.38;;;;;;;21.55;44.01;100050.69;5040306;28;20038;-66
2021/08/03 11:12:36;;;;;;;9.10;1.98;;;;;;;21.73;43.26;100052.31;5040697;28;20334;-65
2021/08/03 11:15:20;;;;;;;12.13;2.00;;;;;;;21.82;43.00;100056.22;5040620;28;20044;-65
2021/08/03 11:17:54;;;;;;;9.70;1.80;;;;;;;21.61;42.54;100035.44;5054962;28;20044;-65
2021/08/03 11:20:35;;;;;;;9.38;1.75;;;;;;;21.54;42.61;100048.16;5062191;28;20086;-67
2021/08/03 11:23:02;;;;;;;6.55;1.42;;;;;;;21.46;42.94;100045.97;5061551;28;20017;-68
2021/08/03 11:25:29;;;;;;;6.55;1.42;;;;;;;21.26;42.88;100044.53;5063055;28;20025;-66
2021/08/03 11:28:05;;;;;;;7.00;2.28;;;;;;;21.12;43.91;100055.94;5063041;28;20063;-66
2021/08/03 11:30:31;;;;;;;5.57;1.58;;;;;;;20.94;43.21;100050.78;5063113;28;20036;-67
2021/08/03 11:32:57;;;;;;;5.57;1.60;;;;;;;20.73;43.91;100053.69;5063228;28;20025;-65
2021/08/03 11:35:26;;;;;;;7.55;1.90;;;;;;;20.42;44.50;100047.47;5062890;28;20029;-66
2021/08/03 11:37:52;;;;;;;9.43;1.58;;;;;;;20.16;45.03;100037.44;5062688;28;20136;-67